Terminal Aerodrome Forecast
Issued by NWS

Home | Current Version | Previous Version | Text Only | Print | Product List | Glossary On
Versions: 1 2 3 4 5 6 7 8 9 10 11 12 13
000
FTUS42 TJSJ 172000 AAA
TAFJPS
TAF AMD
TJPS 172022Z 1720/1818 19010KT P6SM FEW030 SCT050
     FM172330 00000KT P6SM FEW030
     FM181200 10005KT P6SM FEW030
     FM181600 18009KT P6SM FEW030 FEW050
      AMD NOT SKED TIL 180300=

USA.gov is the U.S. government's official web portal to all federal, state and local government web resources and services.